ANG93 YBCS-AYPY
Flight info
| Callsign | ANG93 |
|---|---|
| Flight time | 0h 54m |
| Altitude | 31000 |
| Route | CS R210 LENAK DCT UNSAM UNSAM1 |
| Aircraft | B738/M-SDE2E3FGHIRWXY/LB1 |
Departure
| Time | 2026-04-27 11:02 |
|---|---|
| Airport | Cairns International Airport (YBCS) |
Arrival
| Time | 2026-04-27 11:56 |
|---|---|
| Airport | Port Moresby Jacksons International Airport (AYPY) |
| Time | Latitude | Longitude | Altitude | Speed | Heading |
|---|---|---|---|---|---|
| 2026-04-27 10:27 | -16.87295 | 145.75343 | 24 ft | 0 kts | 157° |
| 2026-04-27 10:36 | -16.87284 | 145.75339 | 24 ft | 2 kts | 157° |
| 2026-04-27 10:36 | -16.87270 | 145.75333 | 24 ft | 2 kts | 158° |
| 2026-04-27 10:37 | -16.87256 | 145.75326 | 24 ft | 2 kts | 157° |
| 2026-04-27 10:37 | -16.87242 | 145.75320 | 24 ft | 2 kts | 157° |
| 2026-04-27 10:37 | -16.87228 | 145.75314 | 24 ft | 2 kts | 157° |
| 2026-04-27 10:37 | -16.87214 | 145.75308 | 24 ft | 2 kts | 157° |
| 2026-04-27 10:38 | -16.87205 | 145.75305 | 23 ft | 1 kts | 197° |
| 2026-04-27 10:38 | -16.87200 | 145.75310 | 24 ft | 0 kts | 243° |
| 2026-04-27 10:38 | -16.87197 | 145.75316 | 24 ft | 1 kts | 246° |
| 2026-04-27 10:38 | -16.87197 | 145.75317 | 24 ft | 0 kts | 246° |
| 2026-04-27 10:42 | -16.87202 | 145.75307 | 23 ft | 3 kts | 246° |
| 2026-04-27 10:42 | -16.87215 | 145.75275 | 23 ft | 6 kts | 246° |
| 2026-04-27 10:42 | -16.87235 | 145.75229 | 22 ft | 8 kts | 245° |
| 2026-04-27 10:42 | -16.87275 | 145.75131 | 20 ft | 18 kts | 248° |
| 2026-04-27 10:43 | -16.87324 | 145.75006 | 18 ft | 13 kts | 261° |
| 2026-04-27 10:43 | -16.87319 | 145.74977 | 18 ft | 0 kts | 284° |
| 2026-04-27 10:43 | -16.87318 | 145.74971 | 18 ft | 0 kts | 280° |
| 2026-04-27 10:43 | -16.87317 | 145.74970 | 18 ft | 0 kts | 282° |
| 2026-04-27 10:44 | -16.87317 | 145.74968 | 18 ft | 0 kts | 287° |
| 2026-04-27 10:45 | -16.87310 | 145.74944 | 19 ft | 14 kts | 287° |
| 2026-04-27 10:45 | -16.87220 | 145.74841 | 20 ft | 20 kts | 332° |
| 2026-04-27 10:45 | -16.87143 | 145.74809 | 20 ft | 0 kts | 336° |
| 2026-04-27 10:46 | -16.87139 | 145.74808 | 20 ft | 0 kts | 336° |
| 2026-04-27 10:46 | -16.87138 | 145.74808 | 20 ft | 0 kts | 337° |
| 2026-04-27 10:47 | -16.87128 | 145.74803 | 20 ft | 3 kts | 336° |
| 2026-04-27 10:47 | -16.87101 | 145.74791 | 19 ft | 4 kts | 337° |
| 2026-04-27 10:47 | -16.87064 | 145.74774 | 19 ft | 5 kts | 328° |
| 2026-04-27 10:47 | -16.87056 | 145.74765 | 19 ft | 0 kts | 302° |
| 2026-04-27 10:48 | -16.87055 | 145.74764 | 19 ft | 0 kts | 302° |
| 2026-04-27 10:48 | -16.87053 | 145.74757 | 19 ft | 0 kts | 302° |
| 2026-04-27 10:48 | -16.87052 | 145.74757 | 19 ft | 0 kts | 302° |
| 2026-04-27 10:49 | -16.87051 | 145.74754 | 19 ft | 2 kts | 299° |
| 2026-04-27 10:49 | -16.87046 | 145.74733 | 19 ft | 1 kts | 269° |
| 2026-04-27 10:49 | -16.87051 | 145.74707 | 19 ft | 0 kts | 252° |
| 2026-04-27 10:50 | -16.87051 | 145.74705 | 19 ft | 0 kts | 252° |
| 2026-04-27 10:50 | -16.87052 | 145.74703 | 19 ft | 0 kts | 250° |
| 2026-04-27 10:51 | -16.87052 | 145.74701 | 19 ft | 0 kts | 250° |
| 2026-04-27 10:53 | -16.87053 | 145.74699 | 19 ft | 0 kts | 250° |
| 2026-04-27 10:53 | -16.87054 | 145.74696 | 19 ft | 0 kts | 250° |
| 2026-04-27 11:00 | -16.87055 | 145.74693 | 19 ft | 0 kts | 250° |
| 2026-04-27 11:01 | -16.87074 | 145.74644 | 19 ft | 23 kts | 251° |
| 2026-04-27 11:01 | -16.87097 | 145.74599 | 19 ft | 3 kts | 195° |
| 2026-04-27 11:01 | -16.87107 | 145.74599 | 19 ft | 2 kts | 172° |
| 2026-04-27 11:01 | -16.87276 | 145.74664 | 19 ft | 76 kts | 158° |
| 2026-04-27 11:02 | -16.88116 | 145.75049 | 97 ft | 178 kts | 157° |
| 2026-04-27 11:02 | -16.89203 | 145.75548 | 1529 ft | 177 kts | 153° |
| 2026-04-27 11:02 | -16.90421 | 145.76135 | 2519 ft | 213 kts | 152° |
| 2026-04-27 11:02 | -16.91798 | 145.76955 | 3266 ft | 252 kts | 144° |
| 2026-04-27 11:03 | -16.93248 | 145.78282 | 3470 ft | 301 kts | 129° |
| 2026-04-27 11:03 | -16.94241 | 145.80299 | 4352 ft | 328 kts | 107° |
| 2026-04-27 11:03 | -16.94307 | 145.82646 | 5261 ft | 331 kts | 86° |
| 2026-04-27 11:03 | -16.93591 | 145.84883 | 4727 ft | 321 kts | 58° |
| 2026-04-27 11:04 | -16.92009 | 145.86333 | 4929 ft | 287 kts | 30° |
| 2026-04-27 11:04 | -16.90136 | 145.86858 | 5045 ft | 270 kts | 7° |
| 2026-04-27 11:04 | -16.88302 | 145.86824 | 4994 ft | 264 kts | 358° |
| 2026-04-27 11:04 | -16.86517 | 145.86618 | 5457 ft | 245 kts | 356° |
| 2026-04-27 11:05 | -16.84866 | 145.86406 | 5987 ft | 238 kts | 356° |
| 2026-04-27 11:05 | -16.83202 | 145.86194 | 6537 ft | 244 kts | 356° |
| 2026-04-27 11:05 | -16.81438 | 145.85980 | 7089 ft | 267 kts | 356° |
| 2026-04-27 11:05 | -16.79508 | 145.85762 | 7635 ft | 283 kts | 356° |
| 2026-04-27 11:06 | -16.77545 | 145.85550 | 8159 ft | 284 kts | 356° |
| 2026-04-27 11:06 | -16.75567 | 145.85341 | 8700 ft | 282 kts | 356° |
| 2026-04-27 11:06 | -16.73597 | 145.85138 | 9232 ft | 285 kts | 356° |
| 2026-04-27 11:06 | -16.71623 | 145.84941 | 9760 ft | 286 kts | 356° |
| 2026-04-27 11:07 | -16.69607 | 145.84752 | 10293 ft | 289 kts | 356° |
| 2026-04-27 11:07 | -16.67604 | 145.84582 | 10812 ft | 291 kts | 356° |
| 2026-04-27 11:07 | -16.65581 | 145.84433 | 11320 ft | 292 kts | 356° |
| 2026-04-27 11:07 | -16.63525 | 145.84306 | 11849 ft | 294 kts | 356° |
| 2026-04-27 11:08 | -16.61439 | 145.84196 | 12028 ft | 312 kts | 356° |
| 2026-04-27 11:08 | -16.59147 | 145.84084 | 12174 ft | 341 kts | 356° |
| 2026-04-27 11:08 | -16.56665 | 145.83963 | 12350 ft | 369 kts | 356° |
| 2026-04-27 11:08 | -16.54000 | 145.83839 | 12544 ft | 393 kts | 356° |
| 2026-04-27 11:09 | -16.51210 | 145.83713 | 12784 ft | 406 kts | 356° |
| 2026-04-27 11:09 | -16.48379 | 145.83597 | 13016 ft | 406 kts | 356° |
| 2026-04-27 11:09 | -16.45518 | 145.83491 | 13252 ft | 407 kts | 356° |
| 2026-04-27 11:09 | -16.42678 | 145.83392 | 13486 ft | 408 kts | 356° |
| 2026-04-27 11:10 | -16.39826 | 145.83298 | 13725 ft | 410 kts | 356° |
| 2026-04-27 11:10 | -16.36936 | 145.83203 | 13965 ft | 410 kts | 356° |
| 2026-04-27 11:10 | -16.34070 | 145.83113 | 14205 ft | 412 kts | 356° |
| 2026-04-27 11:10 | -16.31198 | 145.83028 | 14479 ft | 413 kts | 356° |
| 2026-04-27 11:11 | -16.28297 | 145.82947 | 14940 ft | 415 kts | 356° |
| 2026-04-27 11:11 | -16.25385 | 145.82871 | 15418 ft | 418 kts | 356° |
| 2026-04-27 11:11 | -16.22462 | 145.82803 | 15899 ft | 420 kts | 356° |
| 2026-04-27 11:11 | -16.19488 | 145.82744 | 16385 ft | 423 kts | 356° |
| 2026-04-27 11:12 | -16.16555 | 145.82695 | 16862 ft | 424 kts | 356° |
| 2026-04-27 11:12 | -16.13586 | 145.82652 | 17344 ft | 426 kts | 356° |
| 2026-04-27 11:12 | -16.10559 | 145.82617 | 17833 ft | 429 kts | 356° |
| 2026-04-27 11:12 | -16.07568 | 145.82593 | 18307 ft | 432 kts | 356° |
| 2026-04-27 11:13 | -16.04512 | 145.82651 | 18454 ft | 447 kts | 1° |
| 2026-04-27 11:13 | -16.01342 | 145.83118 | 18363 ft | 458 kts | 8° |
| 2026-04-27 11:13 | -15.98187 | 145.83888 | 18495 ft | 473 kts | 11° |
| 2026-04-27 11:13 | -15.94996 | 145.84799 | 19225 ft | 477 kts | 12° |
| 2026-04-27 11:14 | -15.91830 | 145.85730 | 20142 ft | 463 kts | 12° |
| 2026-04-27 11:14 | -15.88669 | 145.86671 | 20572 ft | 467 kts | 12° |
| 2026-04-27 11:14 | -15.85633 | 145.87552 | 21815 ft | 442 kts | 12° |
| 2026-04-27 11:14 | -15.82652 | 145.88409 | 22080 ft | 456 kts | 11° |
| 2026-04-27 11:15 | -15.79571 | 145.89244 | 22911 ft | 448 kts | 10° |
| 2026-04-27 11:15 | -15.76592 | 145.90022 | 23961 ft | 441 kts | 8° |
| 2026-04-27 11:15 | -15.73622 | 145.90758 | 24815 ft | 439 kts | 7° |
| 2026-04-27 11:15 | -15.70592 | 145.91483 | 25292 ft | 447 kts | 7° |
| 2026-04-27 11:16 | -15.67504 | 145.92215 | 25395 ft | 464 kts | 7° |
| 2026-04-27 11:16 | -15.64282 | 145.92981 | 25332 ft | 482 kts | 7° |
| 2026-04-27 11:16 | -15.60932 | 145.93790 | 25313 ft | 492 kts | 7° |
| 2026-04-27 11:16 | -15.57608 | 145.94609 | 25435 ft | 489 kts | 8° |
| 2026-04-27 11:17 | -15.54320 | 145.95436 | 25826 ft | 484 kts | 8° |
| 2026-04-27 11:17 | -15.51010 | 145.96271 | 26403 ft | 484 kts | 7° |
| 2026-04-27 11:17 | -15.47743 | 145.97093 | 26978 ft | 486 kts | 7° |
| 2026-04-27 11:17 | -15.44408 | 145.97931 | 27569 ft | 488 kts | 7° |
| 2026-04-27 11:18 | -15.41106 | 145.98761 | 28154 ft | 489 kts | 6° |
| 2026-04-27 11:18 | -15.37912 | 145.99562 | 28726 ft | 487 kts | 6° |
| 2026-04-27 11:18 | -15.34590 | 146.00398 | 29323 ft | 484 kts | 6° |
| 2026-04-27 11:18 | -15.31302 | 146.01224 | 29914 ft | 481 kts | 6° |
| 2026-04-27 11:19 | -15.28066 | 146.02037 | 30513 ft | 477 kts | 6° |
| 2026-04-27 11:19 | -15.24845 | 146.02844 | 30902 ft | 476 kts | 5° |
| 2026-04-27 11:19 | -15.18352 | 146.04462 | 30953 ft | 475 kts | 6° |
| 2026-04-27 11:20 | -15.11941 | 146.06067 | 30951 ft | 471 kts | 6° |
| 2026-04-27 11:20 | -15.05527 | 146.07669 | 30944 ft | 471 kts | 6° |
| 2026-04-27 11:21 | -14.99112 | 146.09264 | 30948 ft | 471 kts | 6° |
| 2026-04-27 11:21 | -14.92755 | 146.10849 | 30950 ft | 470 kts | 6° |
| 2026-04-27 11:22 | -14.86359 | 146.12442 | 30956 ft | 471 kts | 6° |
| 2026-04-27 11:22 | -14.79923 | 146.14044 | 30961 ft | 473 kts | 6° |
| 2026-04-27 11:23 | -14.73514 | 146.15642 | 30956 ft | 471 kts | 6° |
| 2026-04-27 11:23 | -14.67111 | 146.17241 | 30959 ft | 470 kts | 6° |
| 2026-04-27 11:24 | -14.60698 | 146.18834 | 30961 ft | 471 kts | 6° |
| 2026-04-27 11:24 | -14.54329 | 146.20413 | 30966 ft | 470 kts | 6° |
| 2026-04-27 11:25 | -14.47936 | 146.22000 | 30961 ft | 472 kts | 6° |
| 2026-04-27 11:25 | -14.41508 | 146.23598 | 30968 ft | 469 kts | 6° |
| 2026-04-27 11:26 | -14.35122 | 146.25124 | 30963 ft | 469 kts | 5° |
| 2026-04-27 11:26 | -14.28710 | 146.26417 | 30963 ft | 465 kts | 4° |
| 2026-04-27 11:27 | -14.22291 | 146.27647 | 30966 ft | 468 kts | 3° |
| 2026-04-27 11:27 | -14.15890 | 146.28891 | 30965 ft | 466 kts | 4° |
| 2026-04-27 11:28 | -14.09472 | 146.30156 | 30967 ft | 466 kts | 4° |
| 2026-04-27 11:28 | -14.03039 | 146.31438 | 30963 ft | 466 kts | 4° |
| 2026-04-27 11:29 | -13.96678 | 146.32707 | 30963 ft | 465 kts | 4° |
| 2026-04-27 11:29 | -13.90274 | 146.33984 | 30964 ft | 466 kts | 4° |
| 2026-04-27 11:30 | -13.83890 | 146.35255 | 30961 ft | 465 kts | 4° |
| 2026-04-27 11:30 | -13.77516 | 146.36525 | 30960 ft | 465 kts | 4° |
| 2026-04-27 11:31 | -13.71098 | 146.37804 | 30963 ft | 466 kts | 4° |
| 2026-04-27 11:31 | -13.64729 | 146.39073 | 30958 ft | 465 kts | 4° |
| 2026-04-27 11:32 | -13.58339 | 146.40346 | 30956 ft | 465 kts | 4° |
| 2026-04-27 11:32 | -13.51938 | 146.41620 | 30952 ft | 465 kts | 4° |
| 2026-04-27 11:33 | -13.45528 | 146.42892 | 30950 ft | 467 kts | 5° |
| 2026-04-27 11:33 | -13.39145 | 146.44162 | 30945 ft | 465 kts | 5° |
| 2026-04-27 11:34 | -13.32764 | 146.45428 | 30945 ft | 466 kts | 5° |
| 2026-04-27 11:34 | -13.26340 | 146.46703 | 30944 ft | 465 kts | 5° |
| 2026-04-27 11:35 | -13.19965 | 146.47967 | 30945 ft | 467 kts | 5° |
| 2026-04-27 11:35 | -13.13537 | 146.49243 | 30944 ft | 466 kts | 5° |
| 2026-04-27 11:36 | -13.07167 | 146.50505 | 30943 ft | 464 kts | 5° |
| 2026-04-27 11:36 | -13.00765 | 146.51773 | 30943 ft | 465 kts | 5° |
| 2026-04-27 11:37 | -12.03871 | 146.70857 | 30971 ft | 471 kts | 5° |
| 2026-04-27 11:37 | -11.63034 | 146.78937 | 30918 ft | 469 kts | 6° |
| 2026-04-27 11:38 | -11.28175 | 146.85818 | 30917 ft | 470 kts | 6° |
| 2026-04-27 11:38 | -11.12442 | 146.88856 | 30667 ft | 472 kts | 6° |
| 2026-04-27 11:39 | -11.09197 | 146.89484 | 30213 ft | 475 kts | 6° |
| 2026-04-27 11:39 | -11.05919 | 146.90122 | 29751 ft | 476 kts | 6° |
| 2026-04-27 11:39 | -11.02604 | 146.90768 | 29285 ft | 479 kts | 6° |
| 2026-04-27 11:39 | -10.99305 | 146.91414 | 28829 ft | 484 kts | 6° |
| 2026-04-27 11:40 | -10.95964 | 146.92067 | 28376 ft | 490 kts | 6° |
| 2026-04-27 11:40 | -10.92600 | 146.92725 | 27945 ft | 493 kts | 6° |
| 2026-04-27 11:40 | -10.89209 | 146.93388 | 27504 ft | 491 kts | 7° |
| 2026-04-27 11:40 | -10.85760 | 146.94067 | 27054 ft | 488 kts | 7° |
| 2026-04-27 11:41 | -10.82399 | 146.94728 | 26613 ft | 488 kts | 7° |
| 2026-04-27 11:41 | -10.79066 | 146.95380 | 26178 ft | 488 kts | 7° |
| 2026-04-27 11:41 | -10.75717 | 146.96037 | 25741 ft | 489 kts | 7° |
| 2026-04-27 11:41 | -10.72327 | 146.96703 | 25305 ft | 491 kts | 7° |
| 2026-04-27 11:42 | -10.68965 | 146.97362 | 24867 ft | 490 kts | 7° |
| 2026-04-27 11:42 | -10.65620 | 146.98016 | 24430 ft | 487 kts | 7° |
| 2026-04-27 11:42 | -10.62321 | 146.98665 | 23995 ft | 481 kts | 8° |
| 2026-04-27 11:42 | -10.59000 | 146.99318 | 23559 ft | 477 kts | 8° |
| 2026-04-27 11:43 | -10.55742 | 146.99957 | 23131 ft | 475 kts | 8° |
| 2026-04-27 11:43 | -10.52499 | 147.00594 | 22705 ft | 471 kts | 8° |
| 2026-04-27 11:43 | -10.49295 | 147.01221 | 22282 ft | 467 kts | 8° |
| 2026-04-27 11:43 | -10.46065 | 147.01852 | 21859 ft | 465 kts | 8° |
| 2026-04-27 11:44 | -10.42905 | 147.02469 | 21470 ft | 461 kts | 8° |
| 2026-04-27 11:44 | -10.39753 | 147.03085 | 21127 ft | 449 kts | 8° |
| 2026-04-27 11:44 | -10.36716 | 147.03682 | 20458 ft | 441 kts | 8° |
| 2026-04-27 11:44 | -10.33710 | 147.04271 | 19617 ft | 437 kts | 8° |
| 2026-04-27 11:45 | -10.30747 | 147.04925 | 18796 ft | 434 kts | 12° |
| 2026-04-27 11:45 | -10.27877 | 147.05882 | 17990 ft | 432 kts | 21° |
| 2026-04-27 11:45 | -10.25248 | 147.07315 | 17176 ft | 430 kts | 32° |
| 2026-04-27 11:45 | -10.22894 | 147.09161 | 16378 ft | 426 kts | 39° |
| 2026-04-27 11:46 | -10.20710 | 147.11177 | 15590 ft | 421 kts | 42° |
| 2026-04-27 11:46 | -10.18626 | 147.13238 | 14815 ft | 416 kts | 43° |
| 2026-04-27 11:46 | -10.16596 | 147.15309 | 14057 ft | 410 kts | 43° |
| 2026-04-27 11:46 | -10.14626 | 147.17329 | 13277 ft | 398 kts | 43° |
| 2026-04-27 11:47 | -10.12740 | 147.19258 | 12575 ft | 375 kts | 43° |
| 2026-04-27 11:47 | -10.10918 | 147.21111 | 11884 ft | 365 kts | 43° |
| 2026-04-27 11:47 | -10.09115 | 147.22928 | 11365 ft | 362 kts | 43° |
| 2026-04-27 11:47 | -10.07321 | 147.24727 | 11039 ft | 367 kts | 43° |
| 2026-04-27 11:48 | -10.05509 | 147.26538 | 10853 ft | 354 kts | 43° |
| 2026-04-27 11:48 | -10.03820 | 147.28230 | 10742 ft | 329 kts | 43° |
| 2026-04-27 11:48 | -10.02225 | 147.29825 | 10560 ft | 314 kts | 43° |
| 2026-04-27 11:48 | -10.00688 | 147.31361 | 10395 ft | 300 kts | 43° |
| 2026-04-27 11:49 | -9.99234 | 147.32816 | 10242 ft | 287 kts | 43° |
| 2026-04-27 11:49 | -9.97844 | 147.34207 | 10091 ft | 275 kts | 43° |
| 2026-04-27 11:49 | -9.96495 | 147.35551 | 9807 ft | 267 kts | 43° |
| 2026-04-27 11:49 | -9.95172 | 147.36868 | 9411 ft | 261 kts | 43° |
| 2026-04-27 11:50 | -9.93894 | 147.38144 | 9081 ft | 254 kts | 43° |
| 2026-04-27 11:50 | -9.92635 | 147.39401 | 8767 ft | 248 kts | 43° |
| 2026-04-27 11:50 | -9.91400 | 147.40585 | 8458 ft | 242 kts | 39° |
| 2026-04-27 11:50 | -9.89954 | 147.41417 | 8178 ft | 234 kts | 15° |
| 2026-04-27 11:51 | -9.88327 | 147.41472 | 7895 ft | 227 kts | 351° |
| 2026-04-27 11:51 | -9.80406 | 147.40063 | 6297 ft | 226 kts | 353° |
| 2026-04-27 11:51 | -9.69652 | 147.38625 | 2984 ft | 231 kts | 324° |
| 2026-04-27 11:52 | -9.68541 | 147.37494 | 2942 ft | 215 kts | 315° |
| 2026-04-27 11:52 | -9.67479 | 147.36513 | 2952 ft | 197 kts | 326° |
| 2026-04-27 11:52 | -9.66380 | 147.35767 | 2944 ft | 184 kts | 332° |
| 2026-04-27 11:52 | -9.60700 | 147.32359 | 3000 ft | 182 kts | 332° |
| 2026-04-27 11:53 | -9.57230 | 147.30226 | 2924 ft | 191 kts | 330° |
| 2026-04-27 11:53 | -9.56091 | 147.29454 | 2691 ft | 200 kts | 328° |
| 2026-04-27 11:53 | -9.54947 | 147.28639 | 2344 ft | 203 kts | 328° |
| 2026-04-27 11:53 | -9.53847 | 147.27918 | 2237 ft | 171 kts | 331° |
| 2026-04-27 11:54 | -9.52902 | 147.27321 | 2123 ft | 154 kts | 332° |
| 2026-04-27 11:54 | -9.51989 | 147.26767 | 1954 ft | 150 kts | 334° |
| 2026-04-27 11:54 | -9.51077 | 147.26221 | 1739 ft | 153 kts | 333° |
| 2026-04-27 11:54 | -9.50153 | 147.25681 | 1545 ft | 151 kts | 334° |
| 2026-04-27 11:55 | -9.49242 | 147.25146 | 1334 ft | 149 kts | 334° |
| 2026-04-27 11:55 | -9.48342 | 147.24611 | 1039 ft | 150 kts | 333° |
| 2026-04-27 11:55 | -9.47469 | 147.24074 | 773 ft | 144 kts | 331° |
| 2026-04-27 11:55 | -9.46605 | 147.23518 | 521 ft | 150 kts | 332° |
| 2026-04-27 11:56 | -9.45697 | 147.22983 | 241 ft | 145 kts | 333° |
| 2026-04-27 11:56 | -9.44902 | 147.22504 | 138 ft | 123 kts | 329° |
| 2026-04-27 11:56 | -9.44272 | 147.22119 | 137 ft | 74 kts | 329° |
| 2026-04-27 11:56 | -9.43966 | 147.21927 | 137 ft | 36 kts | 325° |
| 2026-04-27 11:57 | -9.43946 | 147.21793 | 137 ft | 12 kts | 241° |
| 2026-04-27 11:57 | -9.44019 | 147.21670 | 137 ft | 36 kts | 238° |
| 2026-04-27 11:57 | -9.44038 | 147.21510 | 137 ft | 8 kts | 352° |
| 2026-04-27 11:57 | -9.43924 | 147.21449 | 137 ft | 37 kts | 329° |
| 2026-04-27 11:58 | -9.43884 | 147.21310 | 137 ft | 14 kts | 226° |
| 2026-04-27 11:58 | -9.43924 | 147.21249 | 137 ft | 0 kts | 238° |